RST weather

Rochester International Airport
Rochester, Minnesota, United States

Public forecast

Using degrees Fahrenheit for public forecast. Weather courtesy of forecast.io.

Current aviation weather report (METAR) for Rochester International Airport

Retrieved 2020/06/05 02:54 UTC (45 minutes ago):

KRST 050254Z 11008KT 10SM SCT110 23/14 A2977 RMK AO2 SLP074 T02280144 53006

Aviation forecast (TAF) for Rochester International Airport

Retrieved 2020-06-05 00:34 UTC (3 hours ago):

TAF KRST 042331Z 0500/0524 VRB04KT P6SM SCT100 FM050200 11005KT P6SM VCTS BKN100CB FM050400 13006KT P6SM VCTS BKN100CB TEMPO 0505/0507 VRB20G30KT 5SM -TSRA BR BKN050CB FM051100 17006KT P6SM BKN080 FM051600 35011KT P6SM SCT150